Terminal Aerodrome Forecast
Issued by NWS Mt. Holly, NJ

Home | Current Version | Previous Version | Text Only | Print | Product List | Glossary On
Versions: 1 2 3 4 5 6 7 8 9 10 11 12 13 14 15 16
000
FTUS41 KPHI 011720
TAFABE
TAF
KABE 011720Z 0118/0218 20005KT 1SM -SN BR OVC015
     FM020000 VRB02KT 2SM -FZRAPL OVC005
     FM020600 25002KT 3SM BR OVC004
     FM021000 31006KT P6SM OVC050
     FM021500 32012KT P6SM SCT250=

USA.gov is the U.S. government's official web portal to all federal, state and local government web resources and services.